Time;durP1;ratioP1;P1;durP2;ratioP2;P2;SDS_P1;SDS_P2;PMS_P1;PMS_P2;Temp;Humidity;BMP_temperature;BMP_pressure;BME280_temperature;BME280_humidity;BME280_pressure;Samples;Min_cycle;Max_cycle;Signal;HPM_P1;HPM_P2
2023/09/12 00:00:13;;;;;;;65.30;41.25;;;;;;;20.33;100.00;101255.34;1031693;28;20038;-52
2023/09/12 00:00:45;;;;;;;63.75;40.53;;;;;;;20.40;100.00;101242.38;1025820;28;20042;-53
2023/09/12 00:01:16;;;;;;;67.80;40.28;;;;;;;20.43;100.00;101225.59;1026698;28;20034;-52
2023/09/12 00:01:48;;;;;;;62.53;39.65;;;;;;;20.43;100.00;101209.38;1026717;28;20050;-53
2023/09/12 00:02:20;;;;;;;60.33;38.30;;;;;;;20.38;100.00;101190.41;1027029;28;20051;-52
2023/09/12 00:02:51;;;;;;;58.88;40.53;;;;;;;20.27;100.00;101172.53;1026645;28;20071;-53
2023/09/12 00:03:23;;;;;;;61.92;38.70;;;;;;;20.15;100.00;101153.09;1025729;28;20370;-53
2023/09/12 00:03:55;;;;;;;67.03;40.25;;;;;;;20.00;100.00;101141.22;1021956;29;20055;-55
2023/09/12 00:04:28;;;;;;;59.03;38.10;;;;;;;19.94;100.00;101126.06;1023425;28;20058;-55
2023/09/12 00:04:59;;;;;;;64.40;41.65;;;;;;;19.90;100.00;101116.88;1026416;28;20054;-55
2023/09/12 00:05:34;;;;;;;62.13;40.95;;;;;;;19.87;100.00;101114.72;1026154;28;20047;-55
2023/09/12 00:06:06;;;;;;;62.28;41.05;;;;;;;19.84;100.00;101112.56;1031083;28;20135;-56
2023/09/12 00:06:37;;;;;;;67.25;40.72;;;;;;;19.88;100.00;101116.34;1031170;28;20408;-52
2023/09/12 00:07:09;;;;;;;66.72;44.05;;;;;;;19.65;100.00;101127.69;1030825;28;20488;-53
2023/09/12 00:07:41;;;;;;;65.82;40.95;;;;;;;19.71;100.00;101138.22;1031591;28;20053;-53
2023/09/12 00:08:12;;;;;;;65.75;41.70;;;;;;;19.63;100.00;101140.66;1029683;28;20404;-53
2023/09/12 00:08:44;;;;;;;74.75;44.50;;;;;;;19.41;100.00;101138.97;1031424;28;20038;-52
2023/09/12 00:09:16;;;;;;;69.30;42.50;;;;;;;19.66;100.00;101151.75;1032163;28;20066;-50
2023/09/12 00:09:47;;;;;;;65.97;41.85;;;;;;;19.83;100.00;101151.50;1029757;28;20401;-53
2023/09/12 00:10:19;;;;;;;67.18;41.33;;;;;;;19.83;100.00;101148.78;1031576;28;20046;-51
2023/09/12 00:11:04;;;;;;;65.43;43.80;;;;;;;19.91;100.00;101144.72;1031464;28;20049;-52
2023/09/12 00:11:35;;;;;;;78.07;43.70;;;;;;;19.91;100.00;101142.84;1031316;28;20050;-51
2023/09/12 00:12:15;;;;;;;71.38;43.65;;;;;;;19.85;100.00;101141.22;1031539;28;20053;-53
2023/09/12 00:12:49;;;;;;;76.65;43.45;;;;;;;19.89;100.00;101134.19;1027737;28;20062;-55
2023/09/12 00:13:21;;;;;;;66.80;41.65;;;;;;;19.89;100.00;101134.19;1027598;28;20042;-56
2023/09/12 00:13:52;;;;;;;70.43;45.00;;;;;;;19.92;100.00;101133.63;1024991;28;20046;-55
2023/09/12 00:14:27;;;;;;;69.75;44.70;;;;;;;19.94;100.00;101136.06;1024488;28;20051;-55
2023/09/12 00:14:58;;;;;;;64.25;41.72;;;;;;;19.94;100.00;101136.06;1027546;28;20047;-55
2023/09/12 00:15:30;;;;;;;77.05;43.75;;;;;;;19.96;100.00;101145.53;1027648;28;20046;-55
2023/09/12 00:16:02;;;;;;;73.05;43.38;;;;;;;19.99;100.00;101144.97;1027462;28;20074;-55
2023/09/12 00:16:36;;;;;;;66.18;41.47;;;;;;;19.99;100.00;101149.56;1031941;28;20057;-55
2023/09/12 00:17:09;;;;;;;69.97;44.60;;;;;;;19.85;100.00;101149.31;1031818;28;20058;-55
2023/09/12 00:17:45;;;;;;;65.75;42.65;;;;;;;19.68;100.00;101148.78;1033080;28;20049;-51
2023/09/12 00:18:17;;;;;;;65.40;42.35;;;;;;;19.42;100.00;101140.59;1031820;28;20042;-51
2023/09/12 00:18:59;;;;;;;65.80;41.50;;;;;;;19.36;100.00;101136.25;1032069;28;20046;-55
2023/09/12 00:19:40;;;;;;;67.05;41.55;;;;;;;19.05;100.00;101145.38;1024139;29;20421;-51
2023/09/12 00:20:12;;;;;;;67.18;41.25;;;;;;;19.06;100.00;101149.69;1023820;29;20043;-54
2023/09/12 00:20:49;;;;;;;70.80;43.35;;;;;;;19.31;100.00;101149.78;1023261;29;20043;-54
2023/09/12 00:21:23;;;;;;;67.90;43.15;;;;;;;19.56;100.00;101156.34;1029916;28;20198;-53
2023/09/12 00:21:55;;;;;;;63.72;43.03;;;;;;;19.50;100.00;101150.09;1030307;28;20140;-53
2023/09/12 00:22:26;;;;;;;67.28;44.85;;;;;;;19.31;100.00;101154.34;1027889;28;20587;-54
2023/09/12 00:22:58;;;;;;;88.82;45.00;;;;;;;19.28;100.00;101155.72;1030934;28;20400;-54
2023/09/12 00:23:30;;;;;;;72.60;44.97;;;;;;;19.50;100.00;101157.38;1030969;28;20046;-54
2023/09/12 00:24:02;;;;;;;69.53;41.20;;;;;;;19.69;100.00;101156.59;1029518;28;20507;-53
2023/09/12 00:24:34;;;;;;;70.57;43.40;;;;;;;19.78;100.00;101156.91;1031694;28;20035;-49
2023/09/12 00:25:06;;;;;;;71.10;43.15;;;;;;;19.76;100.00;101156.38;1031367;28;21785;-51
2023/09/12 00:25:38;;;;;;;65.35;41.58;;;;;;;19.84;100.00;101161.22;1031648;28;20416;-49
2023/09/12 00:26:12;;;;;;;70.18;42.95;;;;;;;19.77;100.00;101163.38;1031506;28;20042;-52
2023/09/12 00:26:45;;;;;;;67.32;41.95;;;;;;;19.78;100.00;101165.00;1023315;29;20066;-49
2023/09/12 00:27:19;;;;;;;70.80;42.83;;;;;;;19.81;100.00;101164.47;1023697;29;20198;-51
2023/09/12 00:27:52;;;;;;;67.95;39.35;;;;;;;19.98;100.00;101165.00;1024297;29;20043;-51
2023/09/12 00:28:26;;;;;;;67.68;42.20;;;;;;;19.84;100.00;101163.94;1024025;28;20065;-53
2023/09/12 00:28:58;;;;;;;71.72;45.13;;;;;;;19.79;100.00;101166.63;1028453;28;20122;-55
2023/09/12 00:29:37;;;;;;;69.20;41.50;;;;;;;19.63;100.00;101156.88;1031606;28;20065;-54
2023/09/12 00:30:11;;;;;;;64.50;40.72;;;;;;;19.86;100.00;101156.34;1028054;28;20066;-54
2023/09/12 00:30:43;;;;;;;74.90;42.35;;;;;;;19.97;100.00;101146.34;1028280;28;20042;-55
2023/09/12 00:31:17;;;;;;;72.78;43.35;;;;;;;20.00;100.00;101141.22;1020185;29;20043;-54
2023/09/12 00:31:53;;;;;;;61.35;40.72;;;;;;;20.03;100.00;101131.75;1020723;29;20495;-54
2023/09/12 00:32:24;;;;;;;65.05;40.20;;;;;;;20.07;100.00;101135.53;1023351;29;20047;-54
2023/09/12 00:32:56;;;;;;;67.72;40.30;;;;;;;20.06;100.00;101136.63;1024722;28;20043;-54
2023/09/12 00:33:28;;;;;;;67.80;41.67;;;;;;;19.79;100.00;101139.59;1026677;28;20050;-53
2023/09/12 00:34:00;;;;;;;67.55;41.00;;;;;;;19.78;100.00;101142.56;1026551;28;20047;-54
2023/09/12 00:34:32;;;;;;;70.55;43.92;;;;;;;19.52;100.00;101142.53;1027797;28;20118;-54
2023/09/12 00:35:20;;;;;;;63.50;40.22;;;;;;;19.45;100.00;101140.09;1024411;28;20040;-56
2023/09/12 00:36:07;;;;;;;65.35;41.10;;;;;;;19.62;100.00;101144.44;1027111;28;20087;-56
2023/09/12 00:36:42;;;;;;;69.75;42.90;;;;;;;19.60;100.00;101149.31;1029033;28;20043;-55
2023/09/12 00:37:16;;;;;;;67.38;40.90;;;;;;;19.74;100.00;101153.94;1023537;29;20051;-56
2023/09/12 00:37:49;;;;;;;64.05;41.28;;;;;;;19.76;100.00;101145.56;1020021;29;20058;-55
2023/09/12 00:38:25;;;;;;;64.28;42.13;;;;;;;19.75;100.00;101160.16;1015617;29;20096;-54
2023/09/12 00:38:58;;;;;;;61.85;41.35;;;;;;;19.82;100.00;101157.16;1015750;29;20455;-55
2023/09/12 00:39:30;;;;;;;63.25;42.47;;;;;;;19.50;100.00;101157.38;1020932;29;20043;-55
2023/09/12 00:40:02;;;;;;;65.38;40.92;;;;;;;19.66;100.00;101156.34;1020507;29;20055;-56
2023/09/12 00:40:34;;;;;;;69.25;41.25;;;;;;;19.67;100.00;101164.16;1023711;28;20436;-55
2023/09/12 00:41:08;;;;;;;57.42;38.05;;;;;;;19.61;100.00;101162.56;1027445;28;20604;-55
2023/09/12 00:41:39;;;;;;;63.15;40.88;;;;;;;19.44;100.00;101154.66;1023922;28;20043;-55
2023/09/12 00:42:11;;;;;;;67.63;40.70;;;;;;;19.26;100.00;101157.88;1027124;28;20047;-55
2023/09/12 00:42:43;;;;;;;64.43;40.13;;;;;;;19.50;100.00;101157.38;1027196;28;20702;-54
2023/09/12 00:43:15;;;;;;;67.15;42.67;;;;;;;19.16;100.00;101160.50;1027647;28;20065;-54
2023/09/12 00:43:49;;;;;;;63.30;40.95;;;;;;;19.41;100.00;101154.38;1026860;28;20069;-54
2023/09/12 00:44:21;;;;;;;53.30;38.67;;;;;;;19.56;100.00;101159.03;1027236;28;20043;-52
2023/09/12 00:44:52;;;;;;;64.50;39.70;;;;;;;19.29;100.00;101168.13;1023368;29;20055;-54
2023/09/12 00:45:26;;;;;;;64.88;42.50;;;;;;;19.11;100.00;101165.91;1023818;28;20048;-54
2023/09/12 00:45:58;;;;;;;68.78;43.10;;;;;;;19.33;100.00;101166.53;1027294;28;20058;-54
2023/09/12 00:46:30;;;;;;;70.93;42.45;;;;;;;19.45;100.00;101161.69;1028223;28;20046;-54
2023/09/12 00:47:02;;;;;;;62.58;40.90;;;;;;;19.67;100.00;101168.78;1026777;28;20042;-54
2023/09/12 00:47:36;;;;;;;61.20;41.13;;;;;;;19.57;100.00;101174.16;1027333;28;20436;-54
2023/09/12 00:48:07;;;;;;;66.60;40.17;;;;;;;19.74;100.00;101172.03;1027401;28;20050;-53
2023/09/12 00:48:39;;;;;;;63.70;38.72;;;;;;;19.77;100.00;101174.19;1026530;28;20174;-52
2023/09/12 00:49:12;;;;;;;68.38;41.83;;;;;;;19.77;100.00;101173.41;1022410;28;20044;-52
2023/09/12 00:49:45;;;;;;;60.60;37.90;;;;;;;19.72;100.00;101171.47;1026715;28;20129;-50
2023/09/12 00:50:26;;;;;;;63.72;40.78;;;;;;;19.73;100.00;101167.72;1025169;28;20576;-53
2023/09/12 00:50:57;;;;;;;62.53;37.67;;;;;;;19.79;100.00;101174.75;1023327;28;20052;-52
2023/09/12 00:51:30;;;;;;;71.43;39.45;;;;;;;19.80;100.00;101170.16;1027262;28;20050;-53
2023/09/12 00:52:02;;;;;;;57.58;37.10;;;;;;;19.80;100.00;101175.56;1027210;28;20057;-53
2023/09/12 00:52:36;;;;;;;60.83;38.58;;;;;;;19.87;100.00;101171.50;1020113;29;20079;-51
2023/09/12 00:53:14;;;;;;;57.22;37.10;;;;;;;19.87;100.00;101171.50;1019919;29;20085;-55
2023/09/12 00:53:45;;;;;;;58.85;35.53;;;;;;;19.81;100.00;101175.28;1015502;29;20056;-55
2023/09/12 00:54:20;;;;;;;57.00;37.45;;;;;;;19.75;100.00;101176.38;1018172;29;20056;-55
2023/09/12 00:54:53;;;;;;;59.13;36.65;;;;;;;19.94;100.00;101180.13;1024852;28;20693;-53
2023/09/12 00:55:25;;;;;;;57.13;35.85;;;;;;;20.01;100.00;101186.13;1028694;28;20057;-51
2023/09/12 00:55:58;;;;;;;57.42;38.20;;;;;;;20.02;100.00;101193.16;1031469;28;20046;-52
2023/09/12 00:56:40;;;;;;;65.75;40.83;;;;;;;20.01;100.00;101190.72;1035644;28;20057;-53
2023/09/12 00:57:20;;;;;;;60.30;39.05;;;;;;;20.14;100.00;101194.75;1027518;28;20043;-55
2023/09/12 00:57:52;;;;;;;61.33;39.58;;;;;;;20.22;100.00;101196.91;1027021;28;20050;-55
2023/09/12 00:58:32;;;;;;;56.97;40.60;;;;;;;20.18;100.00;101193.94;1027550;28;20093;-55
2023/09/12 00:59:04;;;;;;;67.18;42.08;;;;;;;20.14;100.00;101194.75;1027021;28;20559;-55
2023/09/12 00:59:36;;;;;;;73.10;41.88;;;;;;;20.19;100.00;101202.84;1027223;28;20494;-55
2023/09/12 01:00:13;;;;;;;69.07;43.03;;;;;;;20.02;100.00;101197.75;1023437;28;20664;-55
2023/09/12 01:00:47;;;;;;;68.05;42.92;;;;;;;19.92;100.00;101200.41;1024729;28;20058;-54
2023/09/12 01:01:28;;;;;;;66.07;40.75;;;;;;;20.12;100.00;101194.22;1020321;29;20084;-54
2023/09/12 01:02:08;;;;;;;68.10;39.80;;;;;;;20.15;100.00;101196.38;1018304;29;20056;-53
2023/09/12 01:02:47;;;;;;;67.75;39.50;;;;;;;20.21;100.00;101192.56;1016228;29;20047;-50
2023/09/12 01:03:22;;;;;;;62.15;41.30;;;;;;;20.24;100.00;101189.31;1019137;29;20163;-54
2023/09/12 01:04:09;;;;;;;64.97;41.13;;;;;;;20.15;100.00;101185.56;1023168;28;20040;-54
2023/09/12 01:05:08;;;;;;;64.03;39.28;;;;;;;20.10;100.00;101199.09;1024381;28;20054;-55
2023/09/12 01:05:43;;;;;;;56.22;37.28;;;;;;;19.67;100.00;101207.41;1026132;28;20089;-55
2023/09/12 01:06:22;;;;;;;67.43;40.50;;;;;;;19.92;100.00;101220.16;1024179;28;20043;-52
2023/09/12 01:07:02;;;;;;;60.58;39.60;;;;;;;19.54;100.00;101217.94;1022842;28;20047;-52
2023/09/12 01:07:40;;;;;;;65.55;38.97;;;;;;;19.47;100.00;101220.06;1024563;28;20045;-55
2023/09/12 01:08:20;;;;;;;63.17;40.53;;;;;;;19.41;100.00;101232.72;1028448;28;21019;-55
2023/09/12 01:09:02;;;;;;;57.40;38.35;;;;;;;19.74;100.00;101228.81;1020691;29;20047;-54
2023/09/12 01:09:45;;;;;;;60.15;37.55;;;;;;;19.81;100.00;101229.34;1015646;29;20055;-53
2023/09/12 01:10:36;;;;;;;63.25;39.83;;;;;;;19.98;100.00;101235.31;1024361;28;20043;-55
2023/09/12 01:11:13;;;;;;;67.25;40.35;;;;;;;19.93;100.00;101227.19;1020734;29;20056;-52
2023/09/12 01:11:48;;;;;;;64.45;41.20;;;;;;;20.01;100.00;101223.97;1020266;29;20044;-53
2023/09/12 01:12:27;;;;;;;64.90;42.78;;;;;;;20.04;100.00;101218.03;1024633;28;20097;-55
2023/09/12 01:13:03;;;;;;;71.20;42.20;;;;;;;20.05;100.00;101208.81;1023608;28;20070;-52
2023/09/12 01:13:50;;;;;;;61.70;39.63;;;;;;;20.12;100.00;101205.03;1019194;29;20080;-53
2023/09/12 01:14:35;;;;;;;63.78;41.00;;;;;;;19.74;100.00;101199.06;1016157;29;20056;-52
2023/09/12 01:15:21;;;;;;;61.13;38.20;;;;;;;19.91;100.00;101191.50;1019892;29;20111;-55
2023/09/12 01:16:10;;;;;;;62.33;39.38;;;;;;;19.98;100.00;101175.00;1026322;28;20123;-53
2023/09/12 01:17:00;;;;;;;57.88;37.58;;;;;;;19.60;100.00;101162.81;1024381;28;20533;-53
2023/09/12 01:17:43;;;;;;;67.63;40.58;;;;;;;19.71;100.00;101153.63;1024162;29;20047;-55
2023/09/12 01:18:27;;;;;;;75.57;40.50;;;;;;;19.78;100.00;101143.38;1014197;29;20515;-52
2023/09/12 01:19:21;;;;;;;63.97;41.45;;;;;;;19.85;100.00;101140.41;1025072;28;20043;-55
2023/09/12 01:20:35;;;;;;;67.15;40.80;;;;;;;19.88;100.00;101132.56;1024000;28;20043;-52
2023/09/12 01:21:40;;;;;;;72.15;40.45;;;;;;;19.89;100.00;101134.19;1028472;28;20097;-55
2023/09/12 01:22:44;;;;;;;68.13;40.72;;;;;;;19.86;100.00;101150.94;1026855;28;20039;-55
2023/09/12 01:23:58;;;;;;;68.78;40.65;;;;;;;19.94;100.00;101152.28;1023701;28;21453;-54
2023/09/12 01:25:02;;;;;;;73.25;39.80;;;;;;;19.93;100.00;101150.66;1024144;28;20502;-54
2023/09/12 01:26:33;;;;;;;67.43;39.22;;;;;;;19.90;100.00;101146.63;1023435;28;20039;-55
2023/09/12 01:27:24;;;;;;;64.07;39.70;;;;;;;19.93;100.00;101146.06;1016025;28;20423;-55
2023/09/12 01:28:09;;;;;;;66.80;41.83;;;;;;;19.94;100.00;101142.28;1023511;28;20055;-55
2023/09/12 01:28:45;;;;;;;73.30;40.97;;;;;;;19.92;100.00;101138.22;1019858;29;20047;-53
2023/09/12 01:29:21;;;;;;;64.50;41.15;;;;;;;19.93;100.00;101135.25;1023052;28;20043;-53
2023/09/12 01:30:24;;;;;;;67.45;39.55;;;;;;;19.93;100.00;101135.25;1027563;28;20045;-53
2023/09/12 01:31:17;;;;;;;63.72;39.35;;;;;;;19.80;100.00;101133.13;1026987;28;20058;-53
2023/09/12 01:31:54;;;;;;;63.28;39.40;;;;;;;19.81;100.00;101126.63;1021223;28;20122;-55
2023/09/12 01:32:42;;;;;;;65.18;38.75;;;;;;;19.63;100.00;101135.25;1022251;29;20051;-55
2023/09/12 01:33:23;;;;;;;55.55;35.88;;;;;;;19.71;100.00;101132.00;1023931;28;20237;-54
2023/09/12 01:34:14;;;;;;;55.28;35.85;;;;;;;19.56;100.00;101135.53;1027661;28;20067;-53
2023/09/12 01:34:52;;;;;;;50.10;32.50;;;;;;;19.68;100.00;101135.25;1027420;28;20616;-52
2023/09/12 01:35:39;;;;;;;60.92;37.22;;;;;;;19.76;100.00;101129.34;1019499;29;22453;-55
2023/09/12 01:36:42;;;;;;;63.67;41.03;;;;;;;19.80;100.00;101129.59;1020138;29;20048;-55
2023/09/12 01:37:26;;;;;;;55.10;36.38;;;;;;;19.78;100.00;101127.16;1024056;29;20054;-53
2023/09/12 01:38:00;;;;;;;61.00;37.17;;;;;;;19.56;100.00;101129.31;1025427;28;20055;-54
2023/09/12 01:39:13;;;;;;;52.60;34.90;;;;;;;19.25;100.00;101129.22;1022220;28;20511;-55
2023/09/12 01:39:52;;;;;;;55.80;34.92;;;;;;;19.20;100.00;101123.81;1027780;28;20046;-55
2023/09/12 01:40:53;;;;;;;;;;;;;;;19.19;100.00;101119.50;1024448;28;20617;-55
2023/09/12 01:41:35;;;;;;;46.90;31.13;;;;;;;19.18;100.00;101133.28;1019753;29;19923;-53
2023/09/12 01:42:14;;;;;;;54.40;34.95;;;;;;;18.92;100.00;101129.69;1017149;29;20052;-55
2023/09/12 01:42:54;;;;;;;58.58;37.08;;;;;;;18.81;100.00;101126.91;1020226;28;20183;-55
2023/09/12 01:43:31;;;;;;;64.57;40.15;;;;;;;18.83;100.00;101127.47;1021790;28;20050;-56
2023/09/12 01:44:14;;;;;;;;;;;;;;;19.00;100.00;101131.84;1013290;29;20059;-53
2023/09/12 01:44:56;;;;;;;57.17;37.75;;;;;;;19.22;100.00;101123.56;1012460;29;20387;-56
2023/09/12 01:45:28;;;;;;;55.13;35.33;;;;;;;19.17;100.00;101131.63;1011557;29;20060;-55
2023/09/12 01:46:18;;;;;;;57.55;37.28;;;;;;;19.11;100.00;101133.50;1020731;29;20067;-53
2023/09/12 01:47:20;;;;;;;48.40;32.78;;;;;;;19.25;100.00;101133.81;1014086;29;20434;-54
2023/09/12 01:48:06;;;;;;;48.90;32.10;;;;;;;19.34;100.00;101137.63;1024831;28;20803;-55
2023/09/12 01:48:58;;;;;;;53.58;32.60;;;;;;;19.25;100.00;101129.22;1024537;28;20039;-52
2023/09/12 01:49:46;;;;;;;49.95;33.92;;;;;;;19.02;100.00;101133.22;1011942;29;20131;-55
2023/09/12 01:50:46;;;;;;;54.28;34.05;;;;;;;19.06;100.00;101133.50;1017315;29;20043;-55
2023/09/12 01:51:28;;;;;;;52.13;32.92;;;;;;;19.12;100.00;101135.13;1019910;28;20132;-51
2023/09/12 01:52:15;;;;;;;51.42;32.75;;;;;;;19.20;100.00;101141.91;1016249;29;20052;-55
2023/09/12 01:52:59;;;;;;;54.25;35.50;;;;;;;19.19;100.00;101141.09;1016457;29;20047;-53
2023/09/12 01:53:35;;;;;;;49.90;31.83;;;;;;;19.19;100.00;101138.41;1020147;29;20067;-52
2023/09/12 01:54:18;;;;;;;47.08;32.25;;;;;;;19.05;100.00;101134.56;1019475;29;20063;-55
2023/09/12 01:54:57;;;;;;;47.08;30.77;;;;;;;19.07;100.00;101132.41;1016920;29;20040;-55
2023/09/12 01:55:42;;;;;;;42.67;30.02;;;;;;;19.11;100.00;101128.09;1020113;29;20042;-53
2023/09/12 01:56:28;;;;;;;41.20;29.80;;;;;;;18.75;100.00;101127.16;1027100;28;20082;-53
2023/09/12 01:57:13;;;;;;;44.38;28.88;;;;;;;18.79;100.00;101129.06;1023253;28;20539;-55
2023/09/12 01:57:52;;;;;;;51.47;28.27;;;;;;;18.61;100.00;101129.50;1024586;28;20046;-53
2023/09/12 01:58:40;;;;;;;41.38;26.15;;;;;;;18.74;100.00;101128.25;1024341;29;20039;-54
2023/09/12 01:59:24;;;;;;;37.40;23.23;;;;;;;18.69;100.00;101137.13;1028914;28;20030;-55
2023/09/12 02:00:01;;;;;;;;;;;;;;;18.67;100.00;101128.50;1026804;28;20046;-55
2023/09/12 02:00:59;;;;;;;46.33;24.30;;;;;;;18.52;100.00;101128.38;1019259;29;19930;-56
2023/09/12 02:01:38;;;;;;;42.03;26.13;;;;;;;18.51;100.00;101129.44;1025005;28;20047;-53
2023/09/12 02:02:34;;;;;;;126.75;18.52;;;;;;;18.20;100.00;101129.28;1031497;28;20517;-53
2023/09/12 02:03:16;;;;;;;85.72;17.40;;;;;;;18.10;100.00;101129.22;1028637;28;20486;-53
2023/09/12 02:04:09;;;;;;;63.97;22.52;;;;;;;18.36;100.00;101124.78;1027784;28;20043;-53
2023/09/12 02:05:18;;;;;;;72.63;20.05;;;;;;;18.33;100.00;101128.00;1030127;28;20497;-55
2023/09/12 02:05:56;;;;;;;48.58;23.13;;;;;;;18.50;100.00;101122.44;1031763;28;20432;-55
2023/09/12 02:06:36;;;;;;;32.33;21.08;;;;;;;18.64;100.00;101126.31;1028566;28;20054;-55
2023/09/12 02:07:26;;;;;;;35.28;25.38;;;;;;;18.64;100.00;101120.94;1027617;28;20055;-52
2023/09/12 02:08:07;;;;;;;39.78;23.92;;;;;;;18.71;100.00;101118.78;1024830;28;20115;-53
2023/09/12 02:09:19;;;;;;;30.00;20.92;;;;;;;18.76;100.00;101129.59;1031829;28;20043;-55
2023/09/12 02:10:09;;;;;;;45.60;22.50;;;;;;;18.66;100.00;101126.06;1033322;28;20042;-53
2023/09/12 02:10:50;;;;;;;47.10;22.88;;;;;;;18.45;100.00;101125.09;1020290;29;20047;-56
2023/09/12 02:11:34;;;;;;;52.50;19.48;;;;;;;18.18;100.00;101123.31;1012330;29;20801;-54
2023/09/12 02:12:22;;;;;;;39.83;18.35;;;;;;;18.23;100.00;101127.94;1014879;29;20522;-53
2023/09/12 02:13:02;;;;;;;42.67;19.20;;;;;;;18.21;100.00;101125.50;1019703;28;20131;-53
2023/09/12 02:13:42;;;;;;;39.22;19.50;;;;;;;18.21;100.00;101128.19;1028115;28;20049;-56
2023/09/12 02:14:25;;;;;;;57.75;16.92;;;;;;;18.19;100.00;101127.66;1032195;28;20061;-53
2023/09/12 02:15:07;;;;;;;39.95;18.85;;;;;;;18.11;100.00;101127.31;1031954;28;20492;-55
2023/09/12 02:15:46;;;;;;;29.30;21.20;;;;;;;18.14;100.00;101124.91;1024128;28;20137;-55
2023/09/12 02:16:18;;;;;;;36.55;23.33;;;;;;;18.19;100.00;101122.25;1026770;28;20412;-55
2023/09/12 02:16:50;;;;;;;54.42;22.63;;;;;;;18.19;100.00;101122.25;1022412;29;20543;-55
2023/09/12 02:17:24;;;;;;;47.28;22.27;;;;;;;18.26;100.00;101121.22;1025598;28;20043;-55
2023/09/12 02:17:56;;;;;;;49.58;22.77;;;;;;;18.24;100.00;101121.47;1031389;28;20049;-53
2023/09/12 02:18:28;;;;;;;35.65;23.52;;;;;;;18.29;100.00;101124.19;1027279;28;20050;-52
2023/09/12 02:18:59;;;;;;;96.72;19.25;;;;;;;18.01;100.00;101130.75;1030973;28;20508;-54
2023/09/12 02:19:31;;;;;;;37.72;21.75;;;;;;;18.10;100.00;101128.41;1031254;28;20100;-52
2023/09/12 02:20:06;;;;;;;55.10;19.13;;;;;;;18.12;100.00;101127.06;1027065;28;20054;-52
2023/09/12 02:20:38;;;;;;;35.28;20.77;;;;;;;18.28;100.00;101127.16;1026798;28;20038;-56
2023/09/12 02:21:10;;;;;;;56.20;20.92;;;;;;;18.16;100.00;101133.56;1027352;28;20051;-55
2023/09/12 02:21:42;;;;;;;50.30;19.77;;;;;;;18.08;100.00;101136.75;1030892;28;20038;-55
2023/09/12 02:22:14;;;;;;;41.78;17.85;;;;;;;18.20;100.00;101134.66;1030642;28;20038;-56
2023/09/12 02:22:46;;;;;;;61.55;19.70;;;;;;;18.12;100.00;101132.47;1031870;28;20424;-53
2023/09/12 02:23:17;;;;;;;51.33;21.95;;;;;;;18.17;100.00;101135.19;1035546;28;20046;-53
2023/09/12 02:23:49;;;;;;;71.85;19.73;;;;;;;18.11;100.00;101136.22;1034648;28;20585;-53
2023/09/12 02:24:21;;;;;;;90.28;16.25;;;;;;;18.05;100.00;101133.72;1035315;28;20135;-53
2023/09/12 02:24:53;;;;;;;62.53;17.73;;;;;;;18.17;100.00;101137.88;1033152;28;20045;-52
2023/09/12 02:25:24;;;;;;;47.25;21.15;;;;;;;18.15;100.00;101140.03;1033899;28;20043;-53
2023/09/12 02:25:56;;;;;;;66.15;14.15;;;;;;;17.86;100.00;101136.84;1030966;28;20050;-53
2023/09/12 02:26:28;;;;;;;71.55;15.20;;;;;;;17.89;100.00;101138.22;1027046;28;20242;-53
2023/09/12 02:26:59;;;;;;;49.78;18.58;;;;;;;18.08;100.00;101142.13;1027019;28;20147;-53
2023/09/12 02:27:31;;;;;;;58.80;20.30;;;;;;;18.17;100.00;101143.28;1027108;28;20043;-53
2023/09/12 02:28:03;;;;;;;62.25;19.63;;;;;;;18.22;100.00;101143.31;1029027;28;20057;-52
2023/09/12 02:28:35;;;;;;;51.00;19.20;;;;;;;18.25;100.00;101143.84;1035033;28;20046;-53
2023/09/12 02:29:07;;;;;;;66.53;20.20;;;;;;;18.17;100.00;101140.56;1030646;28;20049;-53
2023/09/12 02:29:39;;;;;;;65.35;20.55;;;;;;;18.21;100.00;101141.69;1027141;28;20433;-53
2023/09/12 02:30:11;;;;;;;64.63;23.92;;;;;;;18.24;100.00;101143.03;1022402;28;20537;-53
2023/09/12 02:30:43;;;;;;;50.65;19.92;;;;;;;18.29;100.00;101142.25;1022923;28;20051;-52
2023/09/12 02:31:15;;;;;;;27.55;19.90;;;;;;;18.31;100.00;101146.31;1027137;28;20130;-53
2023/09/12 02:31:46;;;;;;;50.08;19.48;;;;;;;18.35;100.00;101141.22;1027160;28;20049;-53
2023/09/12 02:32:18;;;;;;;25.45;18.75;;;;;;;18.35;100.00;101138.50;1026886;28;20042;-54
2023/09/12 02:32:49;;;;;;;50.70;17.58;;;;;;;18.16;100.00;101140.84;1027354;28;20489;-53
2023/09/12 02:33:24;;;;;;;30.75;18.63;;;;;;;18.18;100.00;101141.38;1020715;29;20097;-55
2023/09/12 02:33:56;;;;;;;45.35;17.48;;;;;;;18.08;100.00;101142.13;1019090;29;20043;-55
2023/09/12 02:34:28;;;;;;;31.85;16.38;;;;;;;18.06;100.00;101146.94;1023274;29;20543;-56
2023/09/12 02:34:59;;;;;;;45.08;17.77;;;;;;;18.13;100.00;101141.34;1023582;28;20066;-55
2023/09/12 02:35:31;;;;;;;28.42;17.27;;;;;;;18.14;100.00;101142.97;1027454;28;20209;-52
2023/09/12 02:36:03;;;;;;;21.75;17.33;;;;;;;18.19;100.00;101143.00;1027115;28;20062;-53
2023/09/12 02:36:35;;;;;;;27.05;16.40;;;;;;;18.18;100.00;101144.91;1026872;28;20402;-53
2023/09/12 02:37:07;;;;;;;30.35;15.80;;;;;;;18.08;100.00;101141.28;1023468;28;20062;-54
2023/09/12 02:37:38;;;;;;;70.63;18.35;;;;;;;18.06;100.00;101141.56;1027763;28;20046;-53
2023/09/12 02:38:10;;;;;;;29.98;17.50;;;;;;;18.20;100.00;101145.44;1024417;28;20122;-55
2023/09/12 02:38:42;;;;;;;27.67;19.05;;;;;;;18.17;100.00;101145.97;1027129;28;20039;-55
2023/09/12 02:39:14;;;;;;;39.40;19.00;;;;;;;18.13;100.00;101144.06;1027327;28;20034;-56
2023/09/12 02:39:45;;;;;;;30.40;17.27;;;;;;;18.30;100.00;101146.56;1027374;28;20522;-55
2023/09/12 02:40:18;;;;;;;22.05;18.40;;;;;;;18.30;100.00;101146.56;1030628;28;20386;-55
2023/09/12 02:40:49;;;;;;;26.65;19.08;;;;;;;18.33;100.00;101146.06;1031725;28;20520;-56
2023/09/12 02:41:21;;;;;;;44.72;22.10;;;;;;;18.34;100.00;101147.69;1034782;28;20049;-55
2023/09/12 02:41:53;;;;;;;31.40;19.65;;;;;;;18.13;100.00;101144.06;1030465;28;20457;-55
2023/09/12 02:42:25;;;;;;;34.92;14.57;;;;;;;17.95;100.00;101141.75;1027050;28;20149;-55
2023/09/12 02:42:56;;;;;;;44.35;15.20;;;;;;;17.87;100.00;101149.25;1025752;28;20413;-55
2023/09/12 02:43:29;;;;;;;23.85;17.40;;;;;;;17.95;100.00;101147.94;1022965;28;20183;-52
2023/09/12 02:44:00;;;;;;;34.88;15.70;;;;;;;17.86;100.00;101144.94;1027454;28;20050;-53
2023/09/12 02:44:32;;;;;;;24.80;15.25;;;;;;;17.85;100.00;101150.56;1026778;28;20405;-52
2023/09/12 02:45:04;;;;;;;33.20;18.33;;;;;;;17.95;100.00;101150.66;1021912;28;20039;-54
2023/09/12 02:45:36;;;;;;;36.58;16.60;;;;;;;17.72;100.00;101142.91;1022781;29;20596;-53
2023/09/12 02:46:08;;;;;;;33.08;16.40;;;;;;;17.81;100.00;101146.78;1023254;28;20039;-56
2023/09/12 02:46:40;;;;;;;37.13;16.58;;;;;;;17.62;100.00;101157.06;1023405;28;20125;-55
2023/09/12 02:47:12;;;;;;;32.72;17.52;;;;;;;17.70;100.00;101151.25;1023248;28;20063;-55
2023/09/12 02:47:46;;;;;;;32.15;17.30;;;;;;;17.82;100.00;101159.19;1023051;29;20532;-55
2023/09/12 02:48:18;;;;;;;36.08;15.93;;;;;;;17.75;100.00;101147.78;1019086;29;20044;-53
2023/09/12 02:48:49;;;;;;;43.08;16.92;;;;;;;17.82;100.00;101143.00;1019360;29;20044;-53
2023/09/12 02:49:21;;;;;;;26.35;18.23;;;;;;;17.95;100.00;101147.13;1023587;28;20167;-52
2023/09/12 02:49:53;;;;;;;28.05;17.88;;;;;;;17.91;100.00;101147.66;1027236;28;20153;-53
2023/09/12 02:50:24;;;;;;;37.80;16.30;;;;;;;17.88;100.00;101147.38;1026755;28;20230;-52